Time;durP1;ratioP1;P1;durP2;ratioP2;P2;SDS_P1;SDS_P2;PMS_P1;PMS_P2;Temp;Humidity;BMP_temperature;BMP_pressure;BME280_temperature;BME280_humidity;BME280_pressure;Samples;Min_cycle;Max_cycle;Signal;HPM_P1;HPM_P2
2023/12/04 00:00:12;;;;;;;16.48;9.18;;;;;;;-8.44;100.00;92882.97;2094779;28;20020;-75
2023/12/04 00:01:13;;;;;;;24.83;10.40;;;;;;;-8.54;100.00;92885.09;2089007;28;20122;-77
2023/12/04 00:02:14;;;;;;;23.70;10.95;;;;;;;-8.68;100.00;92885.22;2093161;28;20444;-77
2023/12/04 00:03:15;;;;;;;15.65;9.27;;;;;;;-8.77;100.00;92881.84;2091533;28;20481;-76
2023/12/04 00:04:16;;;;;;;21.77;9.82;;;;;;;-8.83;100.00;92885.63;2097695;28;20446;-76
2023/12/04 00:05:17;;;;;;;16.63;8.18;;;;;;;-8.68;100.00;92875.63;2099362;28;20024;-76
2023/12/04 00:06:19;;;;;;;23.90;9.95;;;;;;;-8.63;100.00;92875.47;2091237;28;20466;-76
2023/12/04 00:07:20;;;;;;;20.63;10.57;;;;;;;-8.65;100.00;92880.19;2096082;28;20490;-76
2023/12/04 00:08:21;;;;;;;23.65;9.90;;;;;;;-8.75;100.00;92871.94;2098386;28;20462;-78
2023/12/04 00:09:24;;;;;;;25.20;13.45;;;;;;;-8.79;100.00;92866.59;2099478;28;20843;-77
2023/12/04 00:10:25;;;;;;;32.90;14.57;;;;;;;-8.77;100.00;92866.31;2105061;28;20038;-78
2023/12/04 00:11:26;;;;;;;21.35;11.57;;;;;;;-8.66;100.00;92863.13;2082674;28;20546;-77
2023/12/04 00:12:27;;;;;;;19.77;10.23;;;;;;;-8.73;100.00;92860.22;2076692;28;20834;-78
2023/12/04 00:13:28;;;;;;;13.60;7.53;;;;;;;-8.67;100.00;92863.44;2086395;28;20112;-76
2023/12/04 00:14:29;;;;;;;14.57;8.18;;;;;;;-8.64;100.00;92862.84;2074297;28;20460;-77
2023/12/04 00:15:30;;;;;;;21.77;9.55;;;;;;;-8.93;100.00;92860.78;2078888;28;20410;-76
2023/12/04 00:16:34;;;;;;;16.27;9.02;;;;;;;-8.88;100.00;92851.03;2085533;28;20031;-75
2023/12/04 00:17:39;;;;;;;14.75;9.15;;;;;;;-8.81;100.00;92853.19;2094717;28;20527;-77
2023/12/04 00:18:40;;;;;;;12.73;8.07;;;;;;;-8.66;100.00;92844.97;2105942;28;20807;-75
2023/12/04 00:19:41;;;;;;;13.15;9.13;;;;;;;-8.79;100.00;92850.28;2098304;28;20462;-77
2023/12/04 00:20:42;;;;;;;16.17;8.30;;;;;;;-8.62;100.00;92852.91;2093403;28;20064;-77
2023/12/04 00:21:44;;;;;;;12.38;7.38;;;;;;;-8.52;100.00;92849.28;2089194;28;20036;-78
2023/12/04 00:22:45;;;;;;;13.75;7.25;;;;;;;-8.51;100.00;92850.81;2092664;28;20451;-75
2023/12/04 00:23:46;;;;;;;14.45;7.93;;;;;;;-8.56;100.00;92848.34;2097752;28;20442;-76
2023/12/04 00:24:47;;;;;;;10.43;6.65;;;;;;;-8.43;100.00;92847.44;2085183;28;20467;-76
2023/12/04 00:25:48;;;;;;;13.77;7.72;;;;;;;-8.41;100.00;92850.50;2085852;28;20052;-75
2023/12/04 00:26:49;;;;;;;10.70;6.60;;;;;;;-8.41;100.00;92851.28;2096545;28;20041;-78
2023/12/04 00:27:50;;;;;;;13.73;7.40;;;;;;;-8.50;100.00;92847.91;2098866;28;21419;-76
2023/12/04 00:28:51;;;;;;;13.20;7.55;;;;;;;-8.58;100.00;92838.28;2095875;28;20113;-76
2023/12/04 00:29:55;;;;;;;14.13;7.88;;;;;;;-8.61;100.00;92841.47;2092225;28;20033;-78
2023/12/04 00:30:56;;;;;;;12.90;7.93;;;;;;;-8.54;100.00;92834.03;2094832;28;20457;-77
2023/12/04 00:31:57;;;;;;;10.95;7.78;;;;;;;-8.27;100.00;92830.34;2097887;28;20450;-76
2023/12/04 00:32:58;;;;;;;12.15;7.28;;;;;;;-8.25;100.00;92824.84;2091396;28;20032;-76
2023/12/04 00:33:59;;;;;;;13.63;7.97;;;;;;;-8.30;100.00;92830.97;2092211;28;20442;-77
2023/12/04 00:35:00;;;;;;;12.85;7.07;;;;;;;-8.20;100.00;92833.25;2079188;28;20417;-76
2023/12/04 00:36:01;;;;;;;12.43;7.45;;;;;;;-8.31;100.00;92829.44;2078300;28;20108;-76
2023/12/04 00:37:02;;;;;;;10.25;6.82;;;;;;;-8.19;100.00;92831.44;2087967;28;20512;-76
2023/12/04 00:38:03;;;;;;;11.48;6.63;;;;;;;-8.16;100.00;92830.81;2092897;28;20849;-76
2023/12/04 00:39:05;;;;;;;13.10;7.25;;;;;;;-8.12;100.00;92829.13;2100178;28;20446;-77
2023/12/04 00:40:09;;;;;;;11.30;6.40;;;;;;;-8.23;100.00;92833.09;2089206;28;20028;-77
2023/12/04 00:41:11;;;;;;;11.85;7.38;;;;;;;-8.43;100.00;92821.53;2090410;28;20458;-77
2023/12/04 00:42:12;;;;;;;13.60;7.40;;;;;;;-8.22;100.00;92826.84;2087246;28;20970;-76
2023/12/04 00:43:13;;;;;;;11.70;7.07;;;;;;;-8.16;100.00;92825.66;2076811;28;20468;-76
2023/12/04 00:44:14;;;;;;;12.38;6.63;;;;;;;-8.08;100.00;92818.91;2084829;28;20032;-77
2023/12/04 00:45:15;;;;;;;8.82;5.95;;;;;;;-8.27;100.00;92824.41;2088985;28;20021;-78
2023/12/04 00:46:15;;;;;;;9.63;6.28;;;;;;;-8.25;100.00;92819.69;2092779;28;20040;-77
2023/12/04 00:47:16;;;;;;;7.32;5.70;;;;;;;-8.21;100.00;92813.59;2094929;28;20466;-77
2023/12/04 00:48:17;;;;;;;8.90;6.25;;;;;;;-8.35;100.00;92812.97;2091931;28;20089;-78
2023/12/04 00:49:18;;;;;;;9.15;6.15;;;;;;;-8.47;100.00;92815.44;2091200;28;20039;-76
2023/12/04 00:50:19;;;;;;;11.32;6.95;;;;;;;-8.64;100.00;92811.03;2093581;28;20087;-77
2023/12/04 00:51:20;;;;;;;9.63;6.70;;;;;;;-8.58;100.00;92809.81;2090917;28;20463;-77
2023/12/04 00:52:24;;;;;;;11.93;7.50;;;;;;;-8.57;100.00;92807.97;2098172;28;20453;-78
2023/12/04 00:53:25;;;;;;;8.57;6.43;;;;;;;-8.52;100.00;92810.41;2093204;28;20463;-77
2023/12/04 00:54:26;;;;;;;9.25;6.57;;;;;;;-8.49;100.00;92807.22;2082183;28;20033;-77
2023/12/04 00:55:27;;;;;;;10.63;6.85;;;;;;;-8.50;100.00;92810.88;2081532;28;20048;-77
2023/12/04 00:56:28;;;;;;;10.40;6.82;;;;;;;-8.50;100.00;92801.28;2085477;28;20028;-76
2023/12/04 00:57:29;;;;;;;9.23;5.82;;;;;;;-8.35;100.00;92807.78;2079450;28;20453;-78
2023/12/04 00:58:30;;;;;;;8.57;5.57;;;;;;;-8.51;100.00;92809.38;2084892;28;20060;-76
2023/12/04 00:59:31;;;;;;;9.82;5.93;;;;;;;-8.39;100.00;92806.91;2098521;28;20020;-76
2023/12/04 01:00:34;;;;;;;9.30;5.55;;;;;;;-8.40;100.00;92815.75;2091576;28;20052;-78
2023/12/04 01:01:35;;;;;;;7.47;4.72;;;;;;;-8.52;100.00;92810.41;2091113;28;20032;-76
2023/12/04 01:02:36;;;;;;;6.93;4.90;;;;;;;-8.42;100.00;92810.13;2083938;28;20531;-78
2023/12/04 01:03:38;;;;;;;8.07;5.03;;;;;;;-8.32;100.00;92809.78;2091856;28;21047;-77
2023/12/04 01:04:41;;;;;;;9.00;5.03;;;;;;;-8.37;100.00;92815.91;2086120;28;20029;-77
2023/12/04 01:05:42;;;;;;;5.75;4.30;;;;;;;-8.29;100.00;92813.59;2093790;28;20459;-77
2023/12/04 01:06:43;;;;;;;6.72;4.55;;;;;;;-8.09;100.00;92804.44;2090404;28;20462;-78
2023/12/04 01:07:44;;;;;;;8.57;4.55;;;;;;;-8.01;100.00;92812.19;2086827;28;20093;-78
2023/12/04 01:08:45;;;;;;;7.25;4.82;;;;;;;-7.98;100.00;92803.81;2085184;28;21001;-78
2023/12/04 01:09:46;;;;;;;7.20;4.80;;;;;;;-7.95;100.00;92800.59;2097102;28;20074;-76
2023/12/04 01:10:47;;;;;;;8.80;4.32;;;;;;;-8.05;100.00;92806.09;2086936;28;20914;-76
2023/12/04 01:11:48;;;;;;;7.25;4.45;;;;;;;-8.00;100.00;92805.16;2091188;28;20039;-77
2023/12/04 01:12:49;;;;;;;7.38;4.40;;;;;;;-7.95;100.00;92802.41;2093590;28;20032;-76
2023/12/04 01:13:50;;;;;;;6.68;4.22;;;;;;;-8.15;100.00;92802.00;2092473;28;20541;-77
2023/12/04 01:14:51;;;;;;;5.47;4.03;;;;;;;-8.04;100.00;92797.25;2093355;28;20527;-78
2023/12/04 01:15:52;;;;;;;6.65;4.63;;;;;;;-8.01;100.00;92801.06;2092544;28;20029;-78
2023/12/04 01:16:53;;;;;;;6.22;4.20;;;;;;;-8.31;100.00;92792.41;2095975;28;20050;-78
2023/12/04 01:17:54;;;;;;;7.93;4.57;;;;;;;-8.27;100.00;92801.09;2078704;28;20179;-76
2023/12/04 01:18:55;;;;;;;5.50;3.95;;;;;;;-8.30;100.00;92796.50;2084425;28;20567;-77
2023/12/04 01:19:57;;;;;;;5.95;3.92;;;;;;;-8.25;100.00;92794.53;2081902;28;20059;-77
2023/12/04 01:21:04;;;;;;;7.35;3.85;;;;;;;-8.01;100.00;92796.63;2076371;28;20636;-77
2023/12/04 01:22:05;;;;;;;5.20;4.00;;;;;;;-7.93;100.00;92795.09;2084831;28;20506;-76
2023/12/04 01:23:06;;;;;;;6.70;4.15;;;;;;;-8.00;100.00;92794.81;2095976;28;20986;-78
2023/12/04 01:24:07;;;;;;;4.57;3.90;;;;;;;-7.80;100.00;92783.03;2090554;28;20493;-76
2023/12/04 01:25:09;;;;;;;6.75;4.15;;;;;;;-7.96;100.00;92788.69;2095531;28;20055;-77
2023/12/04 01:26:11;;;;;;;5.75;4.53;;;;;;;-8.03;100.00;92792.81;2082638;28;20467;-77
2023/12/04 01:27:12;;;;;;;7.38;5.28;;;;;;;-7.81;100.00;92791.84;2083108;28;20467;-76
2023/12/04 01:28:14;;;;;;;7.57;4.72;;;;;;;-8.04;100.00;92792.06;2094347;28;20462;-77
2023/12/04 01:29:15;;;;;;;8.40;4.63;;;;;;;-7.98;100.00;92785.66;2090297;28;20035;-77
2023/12/04 01:30:17;;;;;;;8.00;4.90;;;;;;;-7.92;100.00;92779.22;2088410;28;21041;-77
2023/12/04 01:31:18;;;;;;;6.20;4.75;;;;;;;-8.11;100.00;92781.41;2079341;28;20586;-77
2023/12/04 01:32:19;;;;;;;6.35;4.72;;;;;;;-8.09;100.00;92775.91;2072109;28;20506;-77
2023/12/04 01:33:20;;;;;;;10.20;5.82;;;;;;;-8.11;100.00;92784.00;2080105;28;20029;-77
2023/12/04 01:34:20;;;;;;;7.18;5.07;;;;;;;-7.96;100.00;92785.34;2080582;28;21669;-76
2023/12/04 01:35:21;;;;;;;12.32;5.93;;;;;;;-7.94;100.00;92781.38;2092909;28;20107;-76
2023/12/04 01:36:22;;;;;;;9.98;5.07;;;;;;;-7.81;100.00;92777.09;2087631;28;20102;-76
2023/12/04 01:37:23;;;;;;;8.63;5.57;;;;;;;-7.77;100.00;92779.78;2089990;28;20025;-77
2023/12/04 01:38:24;;;;;;;9.13;5.70;;;;;;;-7.96;100.00;92786.09;2093536;28;20454;-77
2023/12/04 01:39:25;;;;;;;10.00;5.78;;;;;;;-7.79;100.00;92795.69;2089049;28;20031;-76
2023/12/04 01:40:27;;;;;;;9.40;5.68;;;;;;;-7.92;100.00;92788.84;2088578;28;20048;-76
2023/12/04 01:41:28;;;;;;;8.40;5.55;;;;;;;-7.75;100.00;92785.44;2086091;28;20538;-76
2023/12/04 01:42:30;;;;;;;10.10;6.00;;;;;;;-7.99;100.00;92799.69;2081639;28;20471;-77
2023/12/04 01:43:32;;;;;;;11.30;6.53;;;;;;;-7.88;100.00;92785.31;2086338;28;20439;-77
2023/12/04 01:44:33;;;;;;;10.57;6.82;;;;;;;-7.92;100.00;92794.78;2084612;28;20463;-75
2023/12/04 01:45:34;;;;;;;10.30;6.43;;;;;;;-7.81;100.00;92792.66;2084836;28;20435;-77
2023/12/04 01:46:37;;;;;;;9.10;5.93;;;;;;;-7.94;100.00;92791.00;2083249;28;20031;-76
2023/12/04 01:47:38;;;;;;;10.68;6.18;;;;;;;-7.78;100.00;92786.06;2081355;28;20530;-77
2023/12/04 01:48:39;;;;;;;11.63;6.72;;;;;;;-7.81;100.00;92781.47;2088236;28;20548;-74
2023/12/04 01:49:41;;;;;;;10.65;6.28;;;;;;;-8.05;100.00;92784.59;2079655;28;20467;-76
2023/12/04 01:50:42;;;;;;;10.90;6.03;;;;;;;-7.89;100.00;92785.63;2083616;28;20091;-77
2023/12/04 01:51:43;;;;;;;11.23;6.38;;;;;;;-8.04;100.00;92786.88;2089216;28;20554;-77
2023/12/04 01:52:45;;;;;;;11.23;7.50;;;;;;;-7.99;100.00;92785.94;2080527;28;20037;-77
2023/12/04 01:53:46;;;;;;;11.88;6.97;;;;;;;-8.05;100.00;92780.16;2095384;28;20427;-76
2023/12/04 01:54:47;;;;;;;13.00;7.18;;;;;;;-7.96;100.00;92780.91;2088077;28;20542;-78
2023/12/04 01:55:49;;;;;;;11.02;6.20;;;;;;;-7.90;100.00;92776.31;2089418;28;20455;-76
2023/12/04 01:56:50;;;;;;;11.55;6.35;;;;;;;-7.91;100.00;92770.38;2086969;28;20482;-76
2023/12/04 01:57:53;;;;;;;10.48;6.25;;;;;;;-7.87;100.00;92773.88;2082505;28;20934;-77
2023/12/04 01:58:54;;;;;;;9.00;5.72;;;;;;;-8.01;100.00;92775.13;2087297;28;20032;-77
2023/12/04 01:59:55;;;;;;;9.70;7.00;;;;;;;-8.15;100.00;92777.91;2088676;28;20930;-77
2023/12/04 02:00:56;;;;;;;9.77;6.15;;;;;;;-7.95;100.00;92779.06;2092480;28;20450;-76
2023/12/04 02:01:58;;;;;;;10.05;6.53;;;;;;;-7.94;100.00;92765.81;2096465;28;20451;-76
2023/12/04 02:03:00;;;;;;;11.15;6.20;;;;;;;-7.82;100.00;92772.19;2097775;28;20477;-76
2023/12/04 02:04:01;;;;;;;13.50;6.80;;;;;;;-7.93;100.00;92767.34;2099379;28;20558;-76
2023/12/04 02:05:04;;;;;;;12.05;6.75;;;;;;;-7.79;100.00;92769.75;2094519;28;20451;-76
2023/12/04 02:06:06;;;;;;;12.68;7.05;;;;;;;-7.78;100.00;92766.06;2074500;28;20560;-78
2023/12/04 02:07:09;;;;;;;9.70;6.45;;;;;;;-7.77;100.00;92765.00;2078428;28;20452;-75
2023/12/04 02:08:10;;;;;;;9.05;6.07;;;;;;;-7.85;100.00;92758.03;2087215;28;20883;-76
2023/12/04 02:09:13;;;;;;;9.25;5.90;;;;;;;-7.99;100.00;92762.59;2079570;28;20813;-76
2023/12/04 02:10:13;;;;;;;10.10;6.22;;;;;;;-7.99;100.00;92762.59;2086195;28;20460;-76
2023/12/04 02:11:15;;;;;;;8.77;6.15;;;;;;;-8.10;100.00;92757.00;2094874;28;21040;-76
2023/12/04 02:12:16;;;;;;;10.05;6.20;;;;;;;-8.18;100.00;92758.53;2093917;28;20454;-78
2023/12/04 02:13:18;;;;;;;10.32;5.85;;;;;;;-8.30;100.00;92752.44;2085182;28;20044;-77
2023/12/04 02:14:19;;;;;;;9.85;6.10;;;;;;;-8.09;100.00;92755.91;2091694;28;20492;-77
2023/12/04 02:15:20;;;;;;;8.02;5.35;;;;;;;-8.11;100.00;92758.84;2093442;28;20450;-77
2023/12/04 02:16:25;;;;;;;11.50;6.28;;;;;;;-8.08;100.00;92754.84;2090917;28;20466;-77
2023/12/04 02:17:29;;;;;;;9.38;5.65;;;;;;;-8.28;100.00;92752.91;2095749;28;20496;-76
2023/12/04 02:18:29;;;;;;;9.65;6.10;;;;;;;-8.49;100.00;92753.56;2083000;28;20594;-78
2023/12/04 02:19:31;;;;;;;8.40;5.63;;;;;;;-8.23;100.00;92750.91;2075907;28;22849;-77
2023/12/04 02:20:35;;;;;;;9.57;5.85;;;;;;;-8.28;100.00;92756.25;2094076;28;20456;-76
2023/12/04 02:21:36;;;;;;;10.43;5.72;;;;;;;-8.22;100.00;92757.63;2095471;28;21233;-77
2023/12/04 02:24:41;;;;;;;10.43;5.82;;;;;;;-8.90;100.00;92751.44;2110025;27;20178;-75
2023/12/04 02:25:42;;;;;;;9.73;6.82;;;;;;;-8.69;100.00;92751.56;2107328;28;20028;-75
2023/12/04 02:26:52;;;;;;;11.13;6.60;;;;;;;-8.62;100.00;92744.88;2090835;28;20539;-77
2023/12/04 02:27:54;;;;;;;9.38;5.57;;;;;;;-8.52;100.00;92745.63;2090000;28;20462;-75
2023/12/04 02:28:59;;;;;;;9.05;6.15;;;;;;;-8.33;100.00;92748.66;2109311;28;20027;-74
2023/12/04 02:30:03;;;;;;;9.30;5.85;;;;;;;-8.37;100.00;92738.16;2102321;28;20985;-76
2023/12/04 02:31:05;;;;;;;11.45;7.88;;;;;;;-8.47;100.00;92742.88;2097250;28;20446;-77
2023/12/04 02:32:10;;;;;;;10.90;6.53;;;;;;;-8.29;100.00;92738.44;2100653;28;20569;-76
2023/12/04 02:33:13;;;;;;;11.18;7.05;;;;;;;-8.36;100.00;92736.31;2106839;28;20465;-76
2023/12/04 02:34:16;;;;;;;11.07;5.85;;;;;;;-8.37;100.00;92734.81;2096197;28;20509;-75
2023/12/04 02:35:23;;;;;;;9.30;5.68;;;;;;;-8.32;100.00;92733.88;2101488;28;20452;-76
2023/12/04 02:36:31;;;;;;;7.60;4.93;;;;;;;-8.26;100.00;92735.97;2104544;28;20484;-74
2023/12/04 02:37:33;;;;;;;8.38;5.18;;;;;;;-8.20;100.00;92726.22;2108120;28;20484;-75
2023/12/04 02:38:35;;;;;;;10.82;6.38;;;;;;;-8.08;100.00;92725.56;2106239;28;20461;-77
2023/12/04 02:39:36;;;;;;;9.55;5.68;;;;;;;-8.04;100.00;92724.63;2107161;28;20441;-75
2023/12/04 02:40:37;;;;;;;10.05;6.05;;;;;;;-8.09;100.00;92722.22;2108904;28;20450;-77
2023/12/04 02:41:38;;;;;;;8.40;5.20;;;;;;;-8.03;100.00;92725.41;2097682;28;20500;-77
2023/12/04 02:42:39;;;;;;;7.93;5.03;;;;;;;-7.94;100.00;92723.56;2088376;28;20107;-77
2023/12/04 02:43:40;;;;;;;8.93;5.85;;;;;;;-8.02;100.00;92722.50;2092166;28;20427;-76
2023/12/04 02:44:41;;;;;;;10.13;6.60;;;;;;;-8.13;100.00;92719.47;2099149;28;20580;-75
2023/12/04 02:45:42;;;;;;;12.75;6.88;;;;;;;-8.12;100.00;92720.22;2102607;28;20103;-76
2023/12/04 02:46:43;;;;;;;9.95;5.63;;;;;;;-8.26;100.00;92717.06;2080225;28;20048;-76
2023/12/04 02:47:44;;;;;;;7.70;5.25;;;;;;;-8.16;100.00;92707.16;2087506;28;20435;-73
2023/12/04 02:48:45;;;;;;;10.48;6.38;;;;;;;-8.28;100.00;92704.44;2107901;28;20453;-74
2023/12/04 02:49:46;;;;;;;10.68;6.35;;;;;;;-8.06;100.00;92713.84;2086182;28;20903;-74
2023/12/04 02:50:47;;;;;;;9.00;6.10;;;;;;;-7.99;100.00;92710.75;2092953;28;20452;-76
2023/12/04 02:51:48;;;;;;;8.23;5.45;;;;;;;-7.86;100.00;92695.00;2099641;28;20024;-76
2023/12/04 02:52:49;;;;;;;12.55;6.22;;;;;;;-7.73;100.00;92708.06;2095757;28;20051;-77
2023/12/04 02:53:50;;;;;;;9.23;6.45;;;;;;;-7.79;100.00;92704.13;2108375;28;20806;-76
2023/12/04 02:54:51;;;;;;;8.70;5.93;;;;;;;-7.67;100.00;92701.66;2098086;28;20459;-76
2023/12/04 02:55:52;;;;;;;10.88;6.70;;;;;;;-7.67;100.00;92702.41;2095353;28;20017;-76
2023/12/04 02:56:53;;;;;;;12.18;6.63;;;;;;;-7.74;100.00;92706.56;2096914;28;20048;-77
2023/12/04 02:57:54;;;;;;;10.60;6.03;;;;;;;-7.69;100.00;92701.94;2104694;28;20028;-76
2023/12/04 02:59:01;;;;;;;8.02;5.55;;;;;;;-7.74;100.00;92696.19;2108939;28;20031;-76
2023/12/04 03:00:03;;;;;;;10.57;5.60;;;;;;;-7.62;100.00;92702.22;2105704;28;20484;-75
2023/12/04 03:01:05;;;;;;;8.55;5.30;;;;;;;-7.58;100.00;92696.41;2110226;28;20806;-76
2023/12/04 03:02:06;;;;;;;11.07;6.35;;;;;;;-7.60;100.00;92694.13;2095403;28;20508;-76
2023/12/04 03:03:07;;;;;;;8.93;5.57;;;;;;;-7.54;100.00;92686.94;2096626;28;20442;-77
2023/12/04 03:04:08;;;;;;;7.60;5.07;;;;;;;-7.51;100.00;92688.88;2103324;28;20545;-76
2023/12/04 03:05:09;;;;;;;10.18;5.90;;;;;;;-7.76;100.00;92695.75;2097634;28;20766;-77
2023/12/04 03:06:10;;;;;;;10.95;6.55;;;;;;;-7.65;100.00;92687.28;2108015;28;20047;-76
2023/12/04 03:07:11;;;;;;;10.38;6.00;;;;;;;-7.48;100.00;92688.28;2107894;28;20024;-75
2023/12/04 03:08:12;;;;;;;8.02;5.70;;;;;;;-7.45;100.00;92685.81;2105117;28;20522;-77
2023/12/04 03:09:13;;;;;;;8.48;5.50;;;;;;;-7.49;100.00;92686.75;2108638;28;20561;-76
2023/12/04 03:10:14;;;;;;;9.35;5.20;;;;;;;-7.43;100.00;92683.66;2097651;28;20719;-75
2023/12/04 03:11:15;;;;;;;8.85;5.72;;;;;;;-7.38;100.00;92683.47;2098129;28;20458;-77
2023/12/04 03:12:18;;;;;;;8.70;5.55;;;;;;;-7.33;100.00;92673.97;2109795;28;20043;-74
2023/12/04 03:13:19;;;;;;;8.90;5.40;;;;;;;-7.38;100.00;92677.53;2106010;28;20020;-75
2023/12/04 03:14:20;;;;;;;10.25;5.78;;;;;;;-7.42;100.00;92677.41;2111767;28;20488;-76
2023/12/04 03:15:21;;;;;;;9.82;6.47;;;;;;;-7.25;100.00;92679.13;2105608;28;20073;-76
2023/12/04 03:16:22;;;;;;;11.68;6.63;;;;;;;-7.27;100.00;92675.34;2104574;28;20048;-77
2023/12/04 03:17:24;;;;;;;9.15;6.15;;;;;;;-7.24;100.00;92677.28;2108246;28;20100;-74
2023/12/04 03:18:26;;;;;;;11.65;6.53;;;;;;;-7.41;100.00;92678.16;2097276;28;20023;-75
2023/12/04 03:19:27;;;;;;;10.38;6.63;;;;;;;-7.37;100.00;92676.47;2094933;28;20459;-75
2023/12/04 03:20:27;;;;;;;10.35;6.43;;;;;;;-7.33;100.00;92679.94;2091646;28;20458;-77
2023/12/04 03:21:28;;;;;;;9.98;5.78;;;;;;;-7.29;100.00;92673.03;2090978;28;20025;-76
2023/12/04 03:22:29;;;;;;;9.40;6.15;;;;;;;-7.40;100.00;92672.66;2102932;28;20016;-75
2023/12/04 03:23:31;;;;;;;9.98;6.30;;;;;;;-7.28;100.00;92671.22;2108097;28;20023;-75
2023/12/04 03:24:31;;;;;;;11.00;6.20;;;;;;;-7.20;100.00;92676.34;2107611;28;20070;-75
2023/12/04 03:25:32;;;;;;;10.13;5.93;;;;;;;-7.24;100.00;92679.88;2110114;28;20452;-76
2023/12/04 03:26:34;;;;;;;9.18;6.10;;;;;;;-7.23;100.00;92671.78;2107017;28;20032;-77
2023/12/04 03:27:36;;;;;;;10.68;6.18;;;;;;;-7.29;100.00;92672.28;2109481;28;20480;-76
2023/12/04 03:28:38;;;;;;;11.45;6.50;;;;;;;-7.33;100.00;92673.97;2091366;28;20439;-77
2023/12/04 03:29:39;;;;;;;10.93;6.20;;;;;;;-7.04;100.00;92666.16;2083794;28;20439;-76
2023/12/04 03:30:43;;;;;;;9.27;5.78;;;;;;;-7.33;100.00;92676.56;2091964;28;20456;-76
2023/12/04 03:31:44;;;;;;;9.52;5.13;;;;;;;-7.45;100.00;92662.47;2097883;28;20533;-77
2023/12/04 03:32:45;;;;;;;8.23;5.47;;;;;;;-7.23;100.00;92663.25;2101324;28;20456;-75
2023/12/04 03:33:46;;;;;;;10.85;6.18;;;;;;;-7.05;100.00;92662.03;2099335;28;20067;-75
2023/12/04 03:34:47;;;;;;;8.57;6.00;;;;;;;-7.25;100.00;92668.72;2105910;28;20052;-76
2023/12/04 03:35:48;;;;;;;8.85;5.45;;;;;;;-7.19;100.00;92661.53;2089184;28;20574;-74
2023/12/04 03:36:50;;;;;;;6.20;4.55;;;;;;;-7.11;100.00;92664.06;2083339;28;20078;-75
2023/12/04 03:37:51;;;;;;;8.20;5.30;;;;;;;-7.25;100.00;92671.31;2102614;28;20446;-76
2023/12/04 03:38:51;;;;;;;9.02;6.05;;;;;;;-7.35;100.00;92664.69;2087928;28;20447;-74
2023/12/04 03:39:53;;;;;;;7.75;5.53;;;;;;;-7.26;100.00;92671.66;2082023;28;20486;-76
2023/12/04 03:40:53;;;;;;;8.43;5.85;;;;;;;-7.23;100.00;92669.19;2095961;28;20017;-76
2023/12/04 03:41:54;;;;;;;6.20;4.68;;;;;;;-7.17;100.00;92660.13;2083962;28;20479;-74
2023/12/04 03:42:56;;;;;;;9.50;5.57;;;;;;;-7.16;100.00;92661.66;2083514;28;20045;-75
2023/12/04 03:43:57;;;;;;;9.73;5.85;;;;;;;-7.23;100.00;92664.00;2098104;28;20039;-75
2023/12/04 03:44:58;;;;;;;9.13;5.47;;;;;;;-7.22;100.00;92654.38;2093759;28;20465;-76
2023/12/04 03:46:04;;;;;;;8.60;5.18;;;;;;;-7.28;100.00;92655.66;2097130;28;20026;-75
2023/12/04 03:47:11;;;;;;;6.88;5.05;;;;;;;-7.25;100.00;92653.16;2044219;28;20051;-75
2023/12/04 03:49:15;;;;;;;7.30;4.85;;;;;;;-7.24;100.00;92652.09;1998242;28;20468;-76
2023/12/04 03:50:36;;;;;;;6.47;3.88;;;;;;;-7.05;100.00;92646.47;2011761;28;20571;-76
2023/12/04 03:51:37;;;;;;;6.32;3.95;;;;;;;-7.26;100.00;92643.09;2009432;28;20464;-75
2023/12/04 03:52:38;;;;;;;6.85;4.57;;;;;;;-7.14;100.00;92646.53;2021669;28;20455;-75
2023/12/04 03:53:39;;;;;;;6.90;4.97;;;;;;;-7.26;100.00;92649.03;2026618;28;20048;-76
2023/12/04 03:54:39;;;;;;;6.85;5.40;;;;;;;-7.06;100.00;92641.59;2031707;28;21092;-77
2023/12/04 03:55:40;;;;;;;8.73;4.80;;;;;;;-7.05;100.00;92648.31;2041742;28;20060;-75
2023/12/04 03:56:43;;;;;;;7.88;4.47;;;;;;;-7.05;100.00;92648.31;2044811;28;22415;-77
2023/12/04 03:57:45;;;;;;;6.35;4.38;;;;;;;-7.03;100.00;92651.31;2054430;28;20462;-75
2023/12/04 03:58:46;;;;;;;7.55;4.43;;;;;;;-6.96;100.00;92656.78;2059997;28;20031;-76
2023/12/04 03:59:46;;;;;;;6.45;4.82;;;;;;;-6.94;100.00;92652.78;2066002;28;20474;-75
2023/12/04 04:00:47;;;;;;;6.65;4.25;;;;;;;-7.08;100.00;92654.88;2073898;28;20118;-75
2023/12/04 04:01:48;;;;;;;6.40;4.40;;;;;;;-6.97;100.00;92644.88;2060952;28;20036;-77
2023/12/04 04:02:49;;;;;;;7.10;4.07;;;;;;;-6.91;100.00;92641.00;2067005;28;20044;-75
2023/12/04 04:03:50;;;;;;;5.97;4.03;;;;;;;-7.00;100.00;92641.06;2080603;28;21712;-77
2023/12/04 04:04:51;;;;;;;6.93;4.13;;;;;;;-6.91;100.00;92644.34;2085450;28;20028;-75
2023/12/04 04:05:52;;;;;;;5.95;3.90;;;;;;;-6.91;100.00;92638.41;2090488;28;20033;-75
2023/12/04 04:06:53;;;;;;;6.82;4.45;;;;;;;-6.80;100.00;92630.97;2097850;28;20465;-76
2023/12/04 04:07:53;;;;;;;6.00;3.80;;;;;;;-6.82;100.00;92636.50;2097680;28;20070;-76
2023/12/04 04:08:54;;;;;;;6.55;4.25;;;;;;;-6.87;100.00;92642.66;2088822;28;20020;-75
2023/12/04 04:09:55;;;;;;;6.40;4.25;;;;;;;-6.79;100.00;92637.72;2080834;28;20108;-76
2023/12/04 04:10:56;;;;;;;6.15;4.25;;;;;;;-6.85;100.00;92632.72;2080436;28;20544;-76
2023/12/04 04:11:57;;;;;;;5.15;3.75;;;;;;;-6.79;100.00;92630.66;2089269;28;20021;-76
2023/12/04 04:13:00;;;;;;;5.50;3.45;;;;;;;-6.81;100.00;92632.81;2095242;28;20633;-76
2023/12/04 04:14:01;;;;;;;7.57;4.13;;;;;;;-6.69;100.00;92619.88;2095344;28;20485;-76
2023/12/04 04:15:03;;;;;;;5.97;4.28;;;;;;;-6.71;100.00;92626.47;2077192;28;20498;-76
2023/12/04 04:16:05;;;;;;;6.68;5.00;;;;;;;-6.67;100.00;92620.31;2079195;28;20420;-76
2023/12/04 04:17:06;;;;;;;5.72;4.53;;;;;;;-6.69;100.00;92629.50;2092510;28;20454;-77
2023/12/04 04:18:07;;;;;;;7.80;5.40;;;;;;;-6.56;100.00;92625.09;2092713;28;20470;-74
2023/12/04 04:19:08;;;;;;;6.97;4.55;;;;;;;-6.45;100.00;92626.22;2094960;28;21284;-75
2023/12/04 04:20:11;;;;;;;8.07;5.25;;;;;;;-6.45;100.00;92623.59;2086151;28;20452;-76
2023/12/04 04:21:12;;;;;;;6.55;4.55;;;;;;;-6.41;100.00;92619.28;2086841;28;20731;-76
2023/12/04 04:22:13;;;;;;;6.18;4.00;;;;;;;-6.50;100.00;92616.03;2095500;28;20458;-76
2023/12/04 04:23:14;;;;;;;5.85;4.22;;;;;;;-6.46;100.00;92620.25;2096340;28;20024;-77
2023/12/04 04:24:15;;;;;;;6.43;4.60;;;;;;;-6.47;100.00;92612.78;2095978;28;20048;-77
2023/12/04 04:25:16;;;;;;;6.35;4.80;;;;;;;-6.44;100.00;92618.09;2097942;28;20123;-76
2023/12/04 04:26:17;;;;;;;6.72;4.95;;;;;;;-6.53;100.00;92621.88;2094560;28;20032;-75
2023/12/04 04:27:18;;;;;;;6.35;5.10;;;;;;;-6.51;100.00;92625.66;2096381;28;20450;-76
2023/12/04 04:28:19;;;;;;;7.28;5.03;;;;;;;-6.37;100.00;92630.56;2093965;28;20032;-75
2023/12/04 04:29:20;;;;;;;5.47;4.80;;;;;;;-6.23;100.00;92619.84;2095689;28;20040;-77
2023/12/04 04:30:21;;;;;;;6.97;4.68;;;;;;;-6.28;100.00;92620.81;2079955;28;20029;-76
2023/12/04 04:31:22;;;;;;;5.97;4.55;;;;;;;-6.36;100.00;92622.47;2080759;28;20071;-76
2023/12/04 04:32:23;;;;;;;6.80;4.50;;;;;;;-6.66;100.00;92623.69;2093220;28;20013;-77
2023/12/04 04:33:24;;;;;;;6.60;4.50;;;;;;;-6.65;100.00;92625.94;2087159;28;20016;-76
2023/12/04 04:34:25;;;;;;;8.70;5.25;;;;;;;-6.56;100.00;92622.50;2089033;28;20040;-77
2023/12/04 04:35:25;;;;;;;6.30;4.70;;;;;;;-6.41;100.00;92629.69;2095666;28;20516;-74
2023/12/04 04:36:26;;;;;;;6.85;4.53;;;;;;;-6.34;100.00;92622.88;2087504;28;20016;-76
2023/12/04 04:37:27;;;;;;;6.85;4.80;;;;;;;-6.30;100.00;92625.59;2087980;28;20479;-74
2023/12/04 04:38:29;;;;;;;6.97;4.70;;;;;;;-6.42;100.00;92628.19;2096900;28;20544;-73
2023/12/04 04:39:30;;;;;;;6.22;4.22;;;;;;;-6.45;100.00;92629.59;2088789;28;20017;-75
2023/12/04 04:40:33;;;;;;;6.88;4.65;;;;;;;-6.45;100.00;92627.00;2085971;28;20909;-75
2023/12/04 04:41:34;;;;;;;7.85;5.22;;;;;;;-6.32;100.00;92622.59;2089128;28;20526;-75
2023/12/04 04:42:35;;;;;;;7.45;4.72;;;;;;;-6.30;100.00;92622.25;2086247;28;20024;-76
2023/12/04 04:43:35;;;;;;;7.10;4.55;;;;;;;-6.42;100.00;92622.97;2096059;28;20017;-76
2023/12/04 04:44:39;;;;;;;7.35;4.93;;;;;;;-6.34;100.00;92627.31;2097508;28;20028;-75
2023/12/04 04:45:39;;;;;;;7.65;4.70;;;;;;;-6.39;100.00;92625.69;2096187;28;20458;-77
2023/12/04 04:46:40;;;;;;;7.93;5.00;;;;;;;-6.36;100.00;92630.25;2094632;28;20454;-75
2023/12/04 04:47:42;;;;;;;6.45;4.60;;;;;;;-6.27;100.00;92619.00;2094999;28;20020;-75